createdAt,value
2018-08-12T00:01:07.850Z,24.90
2018-08-12T00:03:35.305Z,24.90
2018-08-12T00:06:02.767Z,24.90
2018-08-12T00:08:30.228Z,24.90
2018-08-12T00:10:57.692Z,24.90
2018-08-12T00:13:25.148Z,24.90
2018-08-12T00:15:52.600Z,24.90
2018-08-12T00:18:20.067Z,24.90
2018-08-12T00:20:47.520Z,24.90
2018-08-12T00:23:14.992Z,24.90
2018-08-12T00:25:42.448Z,24.90
2018-08-12T00:28:09.909Z,24.90
2018-08-12T00:30:37.421Z,24.90
2018-08-12T00:33:04.879Z,24.90
2018-08-12T00:35:32.348Z,24.90
2018-08-12T00:37:59.804Z,24.90
2018-08-12T00:40:27.339Z,24.80
2018-08-12T00:42:54.797Z,24.90
2018-08-12T00:45:22.252Z,24.90
2018-08-12T00:47:50.144Z,24.90
2018-08-12T00:50:18.331Z,24.90
2018-08-12T00:52:45.797Z,24.90
2018-08-12T00:55:16.931Z,24.90
2018-08-12T00:57:45.228Z,24.90
2018-08-12T01:00:14.880Z,24.90
2018-08-12T01:02:42.357Z,24.90
2018-08-12T01:05:10.833Z,24.90
2018-08-12T01:07:38.628Z,24.90
2018-08-12T01:10:06.390Z,24.90
2018-08-12T01:12:33.980Z,24.90
2018-08-12T01:15:01.444Z,24.90
2018-08-12T01:17:28.914Z,24.90
2018-08-12T01:19:56.365Z,24.80
2018-08-12T01:22:23.937Z,24.90
2018-08-12T01:24:51.419Z,24.90
2018-08-12T01:27:19.071Z,24.80
2018-08-12T01:29:46.537Z,24.90
2018-08-12T01:32:14.004Z,24.90
2018-08-12T01:34:41.497Z,24.90
2018-08-12T01:37:08.951Z,24.80
2018-08-12T01:39:36.417Z,24.90
2018-08-12T01:42:03.893Z,24.80
2018-08-12T01:44:31.396Z,24.80
2018-08-12T01:46:58.873Z,24.90
2018-08-12T01:49:26.332Z,24.80
2018-08-12T01:51:53.824Z,24.90
2018-08-12T01:54:21.282Z,24.80
2018-08-12T01:56:48.748Z,24.80
2018-08-12T01:59:16.217Z,24.80
2018-08-12T02:01:43.708Z,24.80
2018-08-12T02:04:11.247Z,24.80
2018-08-12T02:06:38.744Z,24.80
2018-08-12T02:09:07.101Z,24.80
2018-08-12T02:11:34.661Z,24.80
2018-08-12T02:14:07.129Z,24.80
2018-08-12T02:16:34.858Z,24.80
2018-08-12T02:19:02.444Z,24.80
2018-08-12T02:21:29.911Z,24.80
2018-08-12T02:23:57.577Z,24.80
2018-08-12T02:26:25.041Z,24.80
2018-08-12T02:28:52.519Z,24.80
2018-08-12T02:31:19.989Z,24.80
2018-08-12T02:33:47.645Z,24.80
2018-08-12T02:36:15.113Z,24.80
2018-08-12T02:38:42.595Z,24.80
2018-08-12T02:41:10.077Z,24.80
2018-08-12T02:43:37.544Z,24.80
2018-08-12T02:46:05.224Z,24.80
2018-08-12T02:48:32.697Z,24.80
2018-08-12T02:51:00.167Z,24.80
2018-08-12T02:53:27.632Z,24.80
2018-08-12T02:55:55.110Z,24.80
2018-08-12T02:58:22.644Z,24.80
2018-08-12T03:00:50.128Z,24.80
2018-08-12T03:03:17.609Z,24.80
2018-08-12T03:05:45.090Z,24.80
2018-08-12T03:08:12.585Z,24.80
2018-08-12T03:10:40.230Z,24.80
2018-08-12T03:13:07.692Z,24.80
2018-08-12T03:15:36.202Z,24.80
2018-08-12T03:18:03.884Z,24.80
2018-08-12T03:20:31.360Z,24.80
2018-08-12T03:22:58.839Z,24.80
2018-08-12T03:25:26.321Z,24.80
2018-08-12T03:27:53.817Z,24.80
2018-08-12T03:30:21.345Z,24.70
2018-08-12T03:32:48.759Z,24.80
2018-08-12T03:35:16.233Z,24.80
2018-08-12T03:37:43.691Z,24.70
2018-08-12T03:40:11.915Z,24.80
2018-08-12T03:42:39.485Z,24.70
2018-08-12T03:45:07.893Z,24.70
2018-08-12T03:47:35.608Z,24.70
2018-08-12T03:50:03.093Z,24.70
2018-08-12T03:52:30.571Z,24.80
2018-08-12T03:54:58.036Z,24.70
2018-08-12T03:57:25.516Z,24.70
2018-08-12T03:59:52.977Z,24.80
2018-08-12T04:02:20.450Z,24.70
2018-08-12T04:04:47.929Z,24.70
2018-08-12T04:07:15.392Z,24.70
2018-08-12T04:09:42.852Z,24.80
2018-08-12T04:12:10.385Z,24.70
2018-08-12T04:14:38.056Z,24.70
2018-08-12T04:17:05.552Z,24.70
2018-08-12T04:19:33.009Z,24.70
2018-08-12T04:22:00.856Z,24.70
2018-08-12T04:24:28.361Z,24.70
2018-08-12T04:26:55.881Z,24.70
2018-08-12T04:29:23.471Z,24.70
2018-08-12T04:31:51.048Z,24.70
2018-08-12T04:34:18.503Z,24.70
2018-08-12T04:36:45.975Z,24.70
2018-08-12T04:39:14.072Z,24.70
2018-08-12T04:41:42.766Z,24.70
2018-08-12T04:44:10.235Z,24.70
2018-08-12T04:46:38.254Z,24.70
2018-08-12T04:49:06.372Z,24.70
2018-08-12T04:51:48.188Z,24.70
2018-08-12T04:54:15.676Z,24.70
2018-08-12T04:56:43.148Z,24.60
2018-08-12T04:59:10.720Z,24.70
2018-08-12T05:01:38.181Z,24.60
2018-08-12T05:04:05.648Z,24.60
2018-08-12T05:06:33.116Z,24.60
2018-08-12T05:09:00.590Z,24.60
2018-08-12T05:11:28.069Z,24.60
2018-08-12T05:13:55.540Z,24.60
2018-08-12T05:16:23.022Z,24.70
2018-08-12T05:18:50.621Z,24.60
2018-08-12T05:21:18.088Z,24.70
2018-08-12T05:23:45.764Z,24.60
2018-08-12T05:26:13.232Z,24.60
2018-08-12T05:28:40.708Z,24.60
2018-08-12T05:31:08.233Z,24.60
2018-08-12T05:33:35.812Z,24.60
2018-08-12T05:36:03.299Z,24.60
2018-08-12T05:38:30.776Z,24.60
2018-08-12T05:40:58.260Z,24.60
2018-08-12T05:43:25.809Z,24.60
2018-08-12T05:45:53.279Z,24.60
2018-08-12T05:48:20.836Z,24.60
2018-08-12T05:50:48.402Z,24.60
2018-08-12T05:53:15.908Z,24.60
2018-08-12T05:55:43.392Z,24.60
2018-08-12T05:58:10.917Z,24.60
2018-08-12T06:00:39.037Z,24.60
2018-08-12T06:03:06.512Z,24.60
2018-08-12T06:05:33.991Z,24.60
2018-08-12T06:08:01.472Z,24.50
2018-08-12T06:10:28.948Z,24.60
2018-08-12T06:12:56.428Z,24.60
2018-08-12T06:15:23.919Z,24.60
2018-08-12T06:17:51.412Z,24.60
2018-08-12T06:20:18.888Z,24.60
2018-08-12T06:22:46.448Z,24.60
2018-08-12T06:25:13.996Z,24.60
2018-08-12T06:27:41.643Z,24.60
2018-08-12T06:30:10.637Z,24.60
2018-08-12T06:32:38.169Z,24.60
2018-08-12T06:35:06.484Z,24.60
2018-08-12T06:37:34.022Z,24.60
2018-08-12T06:42:46.295Z,23.90
2018-08-12T06:45:16.255Z,23.50
2018-08-12T06:47:44.743Z,23.20
2018-08-12T06:50:12.453Z,23.00
2018-08-12T06:52:40.707Z,22.80
2018-08-12T06:55:09.244Z,22.70
2018-08-12T06:57:38.345Z,22.60
2018-08-12T07:00:06.909Z,22.50
2018-08-12T07:02:34.376Z,22.40
2018-08-12T07:05:01.910Z,22.40
2018-08-12T07:07:29.596Z,22.40
2018-08-12T07:09:57.100Z,22.30
2018-08-12T07:12:24.564Z,22.30
2018-08-12T07:14:52.320Z,22.20
2018-08-12T07:17:19.805Z,22.10
2018-08-12T07:19:47.341Z,22.10
2018-08-12T07:22:14.895Z,22.10
2018-08-12T07:24:42.727Z,22.10
2018-08-12T07:27:10.391Z,22.10
2018-08-12T07:29:37.907Z,22.20
2018-08-12T07:32:05.964Z,22.20
2018-08-12T07:34:34.357Z,22.30
2018-08-12T07:37:02.069Z,22.30
2018-08-12T07:39:29.772Z,22.30
2018-08-12T07:41:57.338Z,22.30
2018-08-12T07:44:24.909Z,22.40
2018-08-12T07:46:52.380Z,22.40
2018-08-12T07:49:19.938Z,22.50
2018-08-12T07:51:47.713Z,22.50
2018-08-12T07:54:15.389Z,22.50
2018-08-12T07:56:42.949Z,22.60
2018-08-12T07:59:10.437Z,22.70
2018-08-12T08:01:39.348Z,22.70
2018-08-12T08:04:06.876Z,22.70
2018-08-12T08:06:39.972Z,22.70
2018-08-12T08:09:08.209Z,22.70
2018-08-12T08:11:36.008Z,22.80
2018-08-12T08:14:03.503Z,22.80
2018-08-12T08:16:30.976Z,22.80
2018-08-12T08:18:58.467Z,22.80
2018-08-12T08:21:26.074Z,22.90
2018-08-12T08:23:53.551Z,22.90
2018-08-12T08:26:21.053Z,22.90
2018-08-12T08:28:48.524Z,23.00
2018-08-12T08:31:16.107Z,23.00
2018-08-12T08:33:43.574Z,23.10
2018-08-12T08:36:11.176Z,23.10
2018-08-12T08:38:38.864Z,23.10
2018-08-12T08:41:06.342Z,23.20
2018-08-12T08:43:33.832Z,23.20
2018-08-12T08:46:01.368Z,23.30
2018-08-12T08:48:28.911Z,23.30
2018-08-12T08:50:56.371Z,23.40
2018-08-12T08:53:23.924Z,23.40
2018-08-12T08:55:51.515Z,23.40
2018-08-12T08:58:18.893Z,23.50
2018-08-12T09:00:46.356Z,23.50
2018-08-12T09:03:14.080Z,23.60
2018-08-12T09:05:42.348Z,23.60
2018-08-12T09:08:10.948Z,23.60
2018-08-12T09:10:38.620Z,23.70
2018-08-12T09:13:06.423Z,23.70
2018-08-12T09:15:34.538Z,23.80
2018-08-12T09:18:02.738Z,23.80
2018-08-12T09:20:30.583Z,23.80
2018-08-12T09:23:00.703Z,23.80
2018-08-12T09:25:28.609Z,23.80
2018-08-12T09:27:56.789Z,23.80
2018-08-12T09:30:24.798Z,23.90
2018-08-12T09:32:52.681Z,23.90
2018-08-12T09:35:20.778Z,23.90
2018-08-12T09:37:48.678Z,23.90
2018-08-12T09:40:19.157Z,23.90
2018-08-12T09:43:14.181Z,23.90
2018-08-12T09:45:42.781Z,23.90
2018-08-12T09:48:10.734Z,24.00
2018-08-12T09:50:38.712Z,24.00
2018-08-12T09:53:06.626Z,24.00
2018-08-12T09:55:34.525Z,24.00
2018-08-12T09:58:02.668Z,24.00
2018-08-12T10:00:35.857Z,24.00
2018-08-12T10:03:03.673Z,24.00
2018-08-12T10:05:31.683Z,24.00
2018-08-12T10:08:00.859Z,24.00
2018-08-12T10:10:28.789Z,24.00
2018-08-12T10:12:56.793Z,24.00
2018-08-12T10:15:24.867Z,24.10
2018-08-12T10:17:55.360Z,24.00
2018-08-12T10:20:23.353Z,24.10
2018-08-12T10:22:51.275Z,24.10
2018-08-12T10:25:19.176Z,24.10
2018-08-12T10:27:47.600Z,24.10
2018-08-12T10:30:16.002Z,24.10
2018-08-12T10:32:44.197Z,24.10
2018-08-12T10:35:12.753Z,24.20
2018-08-12T10:37:41.197Z,24.20
2018-08-12T10:40:10.009Z,24.20
2018-08-12T10:42:38.418Z,24.20
2018-08-12T10:45:07.352Z,24.20
2018-08-12T10:47:35.420Z,24.20
2018-08-12T10:50:03.226Z,24.20
2018-08-12T10:52:30.752Z,24.20
2018-08-12T10:54:59.019Z,24.20
2018-08-12T10:57:26.982Z,24.20
2018-08-12T10:59:54.993Z,24.20
2018-08-12T11:02:22.976Z,24.20
2018-08-12T11:04:50.827Z,24.20
2018-08-12T11:07:18.995Z,24.20
2018-08-12T11:09:47.066Z,24.20
2018-08-12T11:12:15.070Z,24.20
2018-08-12T11:14:42.954Z,24.20
2018-08-12T11:17:10.513Z,24.20
2018-08-12T11:19:38.080Z,24.20
2018-08-12T11:22:05.620Z,24.20
2018-08-12T11:24:33.123Z,24.20
2018-08-12T11:27:00.732Z,24.20
2018-08-12T11:29:29.376Z,24.20
2018-08-12T11:31:57.021Z,24.20
2018-08-12T11:34:24.508Z,24.20
2018-08-12T11:36:52.068Z,24.20
2018-08-12T11:39:19.539Z,24.20
2018-08-12T11:41:47.025Z,24.20
2018-08-12T11:44:14.509Z,24.20
2018-08-12T11:46:41.965Z,24.20
2018-08-12T11:49:09.444Z,24.20
2018-08-12T11:51:36.944Z,24.20
2018-08-12T11:54:04.420Z,24.20
2018-08-12T11:56:31.928Z,24.20
2018-08-12T11:58:59.400Z,24.20
2018-08-12T12:01:26.860Z,24.20
2018-08-12T12:03:54.340Z,24.20
2018-08-12T12:06:21.849Z,24.20
2018-08-12T12:08:49.327Z,24.20
2018-08-12T12:11:16.784Z,24.20
2018-08-12T12:13:44.242Z,24.20
2018-08-12T12:16:11.693Z,24.20
2018-08-12T12:18:39.162Z,24.20
2018-08-12T12:21:06.616Z,24.20
2018-08-12T12:23:34.160Z,24.20
2018-08-12T12:26:01.636Z,24.20
2018-08-12T12:28:29.117Z,24.20
2018-08-12T12:30:56.665Z,24.20
2018-08-12T12:33:24.125Z,24.20
2018-08-12T12:35:51.601Z,24.20
2018-08-12T12:38:19.060Z,24.20
2018-08-12T12:40:46.529Z,24.20
2018-08-12T12:43:13.992Z,24.20
2018-08-12T12:45:41.524Z,24.20
2018-08-12T12:48:08.997Z,24.20
2018-08-12T12:50:36.585Z,24.20
2018-08-12T12:53:04.011Z,24.20
2018-08-12T12:55:31.481Z,24.20
2018-08-12T12:57:59.489Z,24.20
2018-08-12T13:00:26.937Z,24.20
2018-08-12T13:02:54.393Z,24.20
2018-08-12T13:05:22.530Z,24.20
2018-08-12T13:07:50.413Z,24.20
2018-08-12T13:10:18.277Z,24.20
2018-08-12T13:12:45.743Z,24.20
2018-08-12T13:15:13.943Z,24.20
2018-08-12T13:17:41.435Z,24.20
2018-08-12T13:20:10.112Z,24.20
2018-08-12T13:22:37.605Z,24.20
2018-08-12T13:25:06.651Z,24.20
2018-08-12T13:27:34.069Z,24.20
2018-08-12T13:30:01.530Z,24.20
2018-08-12T13:32:29.061Z,24.20
2018-08-12T13:34:56.519Z,24.20
2018-08-12T13:37:23.986Z,24.20
2018-08-12T13:39:51.442Z,24.20
2018-08-12T13:42:18.913Z,24.20
2018-08-12T13:44:46.389Z,24.20
2018-08-12T13:47:13.912Z,24.20
2018-08-12T13:49:41.388Z,24.20
2018-08-12T13:52:08.893Z,24.20
2018-08-12T13:54:36.908Z,24.30
2018-08-12T13:57:04.397Z,24.30
2018-08-12T13:59:31.872Z,24.20
2018-08-12T14:04:43.704Z,24.30
2018-08-12T14:07:11.257Z,24.20
2018-08-12T14:09:38.632Z,24.20
2018-08-12T14:12:06.132Z,24.20
2018-08-12T14:14:33.582Z,24.30
2018-08-12T14:17:01.036Z,24.20
2018-08-12T14:19:28.513Z,24.20
2018-08-12T14:21:56.953Z,24.20
2018-08-12T14:24:24.421Z,24.20
2018-08-12T14:26:51.960Z,24.30
2018-08-12T14:29:19.741Z,24.20
2018-08-12T14:31:47.368Z,24.20
2018-08-12T14:34:15.089Z,24.30
2018-08-12T14:36:42.662Z,24.20
2018-08-12T14:39:10.748Z,24.30
2018-08-12T14:41:38.260Z,24.30
2018-08-12T14:44:06.121Z,24.30
2018-08-12T14:46:33.588Z,24.30
2018-08-12T14:49:01.048Z,24.30
2018-08-12T14:51:28.528Z,24.30
2018-08-12T14:53:56.005Z,24.30
2018-08-12T14:56:23.481Z,24.30
2018-08-12T14:58:50.984Z,24.30
2018-08-12T15:01:18.459Z,24.30
2018-08-12T15:03:45.928Z,24.30
2018-08-12T15:06:13.463Z,24.30
2018-08-12T15:08:41.118Z,24.30
2018-08-12T15:11:08.591Z,24.30
2018-08-12T15:13:36.077Z,24.30
2018-08-12T15:16:03.732Z,24.30
2018-08-12T15:18:32.092Z,24.30
2018-08-12T15:20:59.673Z,24.30
2018-08-12T15:23:27.145Z,24.30
2018-08-12T15:25:54.729Z,24.30
2018-08-12T15:28:22.194Z,24.30
2018-08-12T15:30:49.684Z,24.30
2018-08-12T15:33:17.144Z,24.30
2018-08-12T15:35:44.608Z,24.30
2018-08-12T15:38:12.104Z,24.30
2018-08-12T15:40:39.609Z,24.30
2018-08-12T15:43:07.084Z,24.30
2018-08-12T15:45:34.589Z,24.30
2018-08-12T15:48:02.092Z,24.30
2018-08-12T15:50:29.665Z,24.30
2018-08-12T15:52:57.140Z,24.30
2018-08-12T15:55:24.607Z,24.30
2018-08-12T15:57:52.084Z,24.30
2018-08-12T16:00:20.872Z,24.30
2018-08-12T16:02:48.472Z,24.30
2018-08-12T16:05:17.429Z,24.30
2018-08-12T16:07:46.176Z,24.30
2018-08-12T16:10:15.673Z,24.30
2018-08-12T16:12:43.552Z,24.30
2018-08-12T16:15:12.257Z,24.30
2018-08-12T16:17:40.879Z,24.30
2018-08-12T16:20:09.522Z,24.30
2018-08-12T16:22:37.804Z,24.40
2018-08-12T16:25:07.088Z,24.40
2018-08-12T16:27:35.455Z,24.40
2018-08-12T16:30:03.591Z,24.40
2018-08-12T16:32:31.340Z,24.30
2018-08-12T16:34:59.701Z,24.40
2018-08-12T16:37:27.726Z,24.40
2018-08-12T16:39:56.001Z,24.40
2018-08-12T16:42:23.907Z,24.40
2018-08-12T16:44:51.785Z,24.40
2018-08-12T16:47:19.804Z,24.40
2018-08-12T16:49:47.755Z,24.40
2018-08-12T16:52:15.786Z,24.40
2018-08-12T16:54:43.815Z,24.40
2018-08-12T16:57:11.750Z,24.40
2018-08-12T16:59:40.267Z,24.40
2018-08-12T17:02:08.290Z,24.50
2018-08-12T17:04:36.597Z,24.50
2018-08-12T17:07:04.636Z,24.50
2018-08-12T17:09:32.666Z,24.50
2018-08-12T17:12:00.567Z,24.50
2018-08-12T17:14:28.657Z,24.50
2018-08-12T17:16:56.548Z,24.50
2018-08-12T17:19:24.535Z,24.50
2018-08-12T17:21:52.717Z,24.50
2018-08-12T17:24:20.573Z,24.50
2018-08-12T17:26:48.581Z,24.50
2018-08-12T17:29:16.821Z,24.50
2018-08-12T17:31:44.849Z,24.50
2018-08-12T17:34:12.661Z,24.50
2018-08-12T17:36:40.735Z,24.50
2018-08-12T17:39:09.355Z,24.50
2018-08-12T17:41:37.458Z,24.50
2018-08-12T17:44:06.416Z,24.50
2018-08-12T17:46:34.443Z,24.50
2018-08-12T17:49:02.517Z,24.50
2018-08-12T17:51:30.587Z,24.50
2018-08-12T17:53:59.715Z,24.50
2018-08-12T17:56:27.504Z,24.50
2018-08-12T17:58:55.871Z,24.50
2018-08-12T18:01:23.801Z,24.50
2018-08-12T18:03:52.080Z,24.50
2018-08-12T18:06:20.204Z,24.50
2018-08-12T18:08:48.065Z,24.50
2018-08-12T18:11:15.954Z,24.50
2018-08-12T18:13:43.831Z,24.50
2018-08-12T18:16:11.856Z,24.50
2018-08-12T18:18:39.736Z,24.50
2018-08-12T18:21:07.847Z,24.50
2018-08-12T18:23:35.977Z,24.50
2018-08-12T18:26:03.950Z,24.50
2018-08-12T18:28:31.833Z,24.50
2018-08-12T18:31:00.075Z,24.50
2018-08-12T18:33:29.947Z,24.50
2018-08-12T18:35:57.804Z,24.50
2018-08-12T18:38:25.570Z,24.50
2018-08-12T18:40:53.923Z,24.50
2018-08-12T18:43:21.860Z,24.50
2018-08-12T18:45:50.067Z,24.40
2018-08-12T18:48:18.997Z,24.40
2018-08-12T18:50:47.046Z,24.40
2018-08-12T18:53:15.003Z,24.30
2018-08-12T18:55:43.557Z,24.30
2018-08-12T18:58:11.936Z,24.30
2018-08-12T19:00:39.959Z,24.20
2018-08-12T19:03:07.676Z,24.30
2018-08-12T19:05:36.761Z,24.30
2018-08-12T19:08:04.751Z,24.30
2018-08-12T19:10:32.949Z,24.30
2018-08-12T19:13:00.825Z,24.30
2018-08-12T19:15:28.753Z,24.30
2018-08-12T19:17:56.667Z,24.30
2018-08-12T19:20:24.746Z,24.30
2018-08-12T19:22:52.864Z,24.30
2018-08-12T19:25:21.283Z,24.30
2018-08-12T19:27:49.126Z,24.30
2018-08-12T19:30:17.426Z,24.40
2018-08-12T19:33:42.529Z,24.40
2018-08-12T19:36:10.922Z,24.40
2018-08-12T19:38:39.096Z,24.50
2018-08-12T19:41:07.380Z,24.40
2018-08-12T19:43:35.239Z,24.50
2018-08-12T19:46:03.172Z,24.50
2018-08-12T19:48:31.355Z,24.50
2018-08-12T19:51:00.048Z,24.40
2018-08-12T19:53:27.674Z,24.50
2018-08-12T19:55:55.183Z,24.50
2018-08-12T19:58:23.088Z,24.50
2018-08-12T20:00:50.562Z,24.50
2018-08-12T20:03:18.465Z,24.50
2018-08-12T20:05:46.092Z,24.50
2018-08-12T20:08:13.580Z,24.50
2018-08-12T20:10:41.181Z,24.50
2018-08-12T20:13:08.794Z,24.50
2018-08-12T20:15:36.311Z,24.50
2018-08-12T20:18:04.038Z,24.50
2018-08-12T20:20:31.505Z,24.50
2018-08-12T20:23:00.259Z,24.50
2018-08-12T20:25:27.738Z,24.50
2018-08-12T20:27:55.244Z,24.50
2018-08-12T20:30:22.660Z,24.50
2018-08-12T20:32:50.137Z,24.50
2018-08-12T20:35:17.613Z,24.50
2018-08-12T20:37:45.072Z,24.50
2018-08-12T20:40:12.530Z,24.50
2018-08-12T20:42:40.013Z,24.50
2018-08-12T20:45:07.766Z,24.50
2018-08-12T20:47:35.466Z,24.50
2018-08-12T20:50:03.114Z,24.50
2018-08-12T20:52:30.604Z,24.50
2018-08-12T20:54:58.073Z,24.50
2018-08-12T20:57:25.547Z,24.50
2018-08-12T20:59:53.096Z,24.50
2018-08-12T21:02:20.556Z,24.50
2018-08-12T21:04:48.012Z,24.50
2018-08-12T21:07:15.488Z,24.50
2018-08-12T21:09:42.976Z,24.50
2018-08-12T21:12:10.656Z,24.50
2018-08-12T21:14:38.010Z,24.50
2018-08-12T21:17:05.472Z,24.50
2018-08-12T21:19:32.931Z,24.50
2018-08-12T21:22:00.392Z,24.50
2018-08-12T21:24:27.870Z,24.50
2018-08-12T21:26:55.370Z,24.50
2018-08-12T21:29:23.061Z,24.50
2018-08-12T21:31:50.588Z,24.50
2018-08-12T21:34:18.197Z,24.50
2018-08-12T21:36:45.684Z,24.50
2018-08-12T21:39:14.182Z,24.50
2018-08-12T21:41:41.769Z,24.50
2018-08-12T21:44:09.260Z,24.50
2018-08-12T21:46:36.868Z,24.50
2018-08-12T21:49:04.652Z,24.50
2018-08-12T21:51:32.129Z,24.50
2018-08-12T21:53:59.603Z,24.50
2018-08-12T21:56:27.057Z,24.50
2018-08-12T21:58:54.611Z,24.50
2018-08-12T22:01:22.060Z,24.50
2018-08-12T22:03:49.516Z,24.50
2018-08-12T22:06:16.990Z,24.50
2018-08-12T22:08:44.568Z,24.50
2018-08-12T22:11:12.048Z,24.50
2018-08-12T22:13:39.509Z,24.50
2018-08-12T22:16:06.967Z,24.50
2018-08-12T22:18:34.461Z,24.50
2018-08-12T22:21:01.931Z,24.50
2018-08-12T22:23:29.397Z,24.50
2018-08-12T22:25:56.857Z,24.50
2018-08-12T22:28:24.320Z,24.50
2018-08-12T22:30:51.824Z,24.50
2018-08-12T22:33:19.288Z,24.50
2018-08-12T22:35:46.799Z,24.60
2018-08-12T22:38:14.332Z,24.50
2018-08-12T22:40:41.788Z,24.50
2018-08-12T22:43:09.268Z,24.50
2018-08-12T22:45:36.742Z,24.50
2018-08-12T22:50:48.469Z,24.50
2018-08-12T22:53:15.917Z,24.50
2018-08-12T22:55:43.365Z,24.50
2018-08-12T22:58:10.828Z,24.50
2018-08-12T23:00:38.293Z,24.50
2018-08-12T23:03:06.553Z,24.50
2018-08-12T23:05:34.008Z,24.50
2018-08-12T23:08:07.553Z,24.50
2018-08-12T23:10:35.317Z,24.50
2018-08-12T23:13:02.802Z,24.50
2018-08-12T23:15:39.621Z,24.50
2018-08-12T23:18:07.085Z,24.50
2018-08-12T23:20:34.577Z,24.50
2018-08-12T23:23:02.039Z,24.50
2018-08-12T23:25:29.484Z,24.50
2018-08-12T23:27:56.945Z,24.50
2018-08-12T23:30:24.398Z,24.50
2018-08-12T23:32:52.029Z,24.50
2018-08-12T23:35:19.496Z,24.50
2018-08-12T23:37:46.956Z,24.50
2018-08-12T23:40:14.421Z,24.50
2018-08-12T23:42:42.060Z,24.50
2018-08-12T23:45:09.518Z,24.50
2018-08-12T23:47:36.989Z,24.50
2018-08-12T23:50:04.462Z,24.50
2018-08-12T23:52:31.917Z,24.50
2018-08-12T23:54:59.373Z,24.50
2018-08-12T23:57:26.856Z,24.50
2018-08-12T23:59:54.300Z,24.50
